Portada
METAR-TAF:

METAR-TAF

Aeropuertos :

El Hierro, España

Aeropuerto de El Hierro

latitud: 27-49N, longitud: 017-53W, altitud: 32 m

Observación

El informe se hizo hace 19 minutos, a las 19:00 UTC
Viento 15 kt del norte-noroeste, variando entre noroeste y norte-noreste
Temperatura 24°C
Humedad 69%
Presión 1017 hPa
Visibilidad 10 km o más
sin nubes por debajo de 1500 m y sin presencia de cumulonimbus.

METAR: GCHI 191900Z AUTO 34015KT 320V020 CAVOK 24/18 Q1017

Hora: 20:19 (19:19 UTC)

Pronóstico

El informe se hizo hace 5 horas y 19 minutos, a las 14:00 UTC
Pronóstico válido del 19 a las 15 UTC al 20 a las 15 UTC
Viento 15 kt del norte
Visibilidad 10 km o más
sin nubes por debajo de 1500 m y sin presencia de cumulonimbus.

TAF: GCHI 191400Z 1915/2015 35015KT CAVOK TX27/2014Z TN21/2006Z

Observaciones y pronósticos meteorológicos de más de 4000 aeropuertos (mensajes METAR y TAF).

Los puntos amarillos y rojos representan las estaciones disponibles.

Ponga el ratón en el punto deseado para ver el nombre de la estación.

Haga clic para ver las observaciones y los pronósticos meteorológicos.

Para cambiar el mapa : haga clic en los botones verdes con una cruz de color negro para hacer un zoom, en el botón verde con un guión para alejar o en las flechas verdes para mapas adyacentes.


METAR-TAF: